createdAt,value
2022-12-13T00:00:28.585Z,58.49
2022-12-13T00:03:53.944Z,58.50
2022-12-13T00:06:57.916Z,58.50
2022-12-13T00:10:00.823Z,58.44
2022-12-13T00:13:04.753Z,58.24
2022-12-13T00:16:10.345Z,58.30
2022-12-13T00:19:15.710Z,58.04
2022-12-13T00:22:17.795Z,57.82
2022-12-13T00:25:21.783Z,57.86
2022-12-13T00:28:23.884Z,57.80
2022-12-13T00:34:48.367Z,57.73
2022-12-13T00:37:51.103Z,57.63
2022-12-13T00:40:54.209Z,57.57
2022-12-13T00:43:58.128Z,57.49
2022-12-13T00:47:05.439Z,57.42
2022-12-13T00:50:08.887Z,57.46
2022-12-13T00:53:10.799Z,57.45
2022-12-13T00:56:15.750Z,57.41
2022-12-13T00:59:17.815Z,57.46
2022-12-13T01:02:20.582Z,57.52
2022-12-13T01:05:40.004Z,57.51
2022-12-13T01:08:46.121Z,57.62
2022-12-13T01:11:49.841Z,57.69
2022-12-13T01:14:56.108Z,57.69
2022-12-13T01:17:58.712Z,57.72
2022-12-13T01:21:16.792Z,57.75
2022-12-13T01:24:21.303Z,57.88
2022-12-13T01:27:23.784Z,57.97
2022-12-13T01:30:26.248Z,58.02
2022-12-13T01:33:30.213Z,58.17
2022-12-13T01:36:32.562Z,58.19
2022-12-13T01:39:42.484Z,58.20
2022-12-13T01:42:44.589Z,58.21
2022-12-13T01:45:47.266Z,58.25
2022-12-13T01:48:54.837Z,58.28
2022-12-13T01:52:05.551Z,58.27
2022-12-13T01:55:09.484Z,58.28
2022-12-13T01:58:15.715Z,58.41
2022-12-13T02:01:18.936Z,58.45
2022-12-13T02:04:29.100Z,58.46
2022-12-13T02:07:34.283Z,58.52
2022-12-13T02:10:37.693Z,58.71
2022-12-13T02:13:40.148Z,58.66
2022-12-13T02:17:13.681Z,58.73
2022-12-13T02:20:38.385Z,58.63
2022-12-13T02:24:11.152Z,58.70
2022-12-13T02:27:50.977Z,58.66
2022-12-13T02:31:03.177Z,58.71
2022-12-13T02:34:21.320Z,58.70
2022-12-13T02:37:29.601Z,58.67
2022-12-13T02:40:47.323Z,58.77
2022-12-13T02:44:01.055Z,58.76
2022-12-13T02:47:22.101Z,58.71
2022-12-13T02:50:27.978Z,58.76
2022-12-13T02:53:31.297Z,58.70
2022-12-13T02:56:36.377Z,58.74
2022-12-13T02:59:40.339Z,58.79
2022-12-13T03:02:51.059Z,58.77
2022-12-13T03:06:24.452Z,58.83
2022-12-13T03:09:42.424Z,58.82
2022-12-13T03:13:08.680Z,58.93
2022-12-13T03:16:22.717Z,58.87
2022-12-13T03:19:27.906Z,58.90
2022-12-13T03:22:35.196Z,59.17
2022-12-13T03:25:37.229Z,59.21
2022-12-13T03:28:40.223Z,59.26
2022-12-13T03:31:42.198Z,59.07
2022-12-13T03:34:46.757Z,59.00
2022-12-13T03:37:50.860Z,59.03
2022-12-13T03:41:01.013Z,58.95
2022-12-13T03:44:08.918Z,58.93
2022-12-13T03:47:11.764Z,58.93
2022-12-13T03:50:27.010Z,58.97
2022-12-13T03:53:32.416Z,58.93
2022-12-13T03:56:34.944Z,58.95
2022-12-13T03:59:39.486Z,59.02
2022-12-13T04:02:43.136Z,59.01
2022-12-13T04:05:45.814Z,59.08
2022-12-13T04:08:48.194Z,59.09
2022-12-13T04:12:12.391Z,59.10
2022-12-13T04:16:04.824Z,59.18
2022-12-13T04:19:07.686Z,59.29
2022-12-13T04:22:09.897Z,59.28
2022-12-13T04:25:12.497Z,59.41
2022-12-13T04:28:22.765Z,59.28
2022-12-13T04:31:25.749Z,59.35
2022-12-13T04:34:31.857Z,59.35
2022-12-13T04:37:38.023Z,59.36
2022-12-13T04:40:39.947Z,59.41
2022-12-13T04:43:42.180Z,59.42
2022-12-13T04:46:45.194Z,59.43
2022-12-13T04:49:48.100Z,59.45
2022-12-13T04:52:50.301Z,59.44
2022-12-13T04:55:55.973Z,59.41
2022-12-13T04:58:58.026Z,59.45
2022-12-13T05:02:00.343Z,59.46
2022-12-13T05:05:02.466Z,59.56
2022-12-13T05:08:05.229Z,59.57
2022-12-13T05:11:08.528Z,59.47
2022-12-13T05:14:10.758Z,59.60
2022-12-13T05:17:12.745Z,59.55
2022-12-13T05:20:15.457Z,59.58
2022-12-13T05:23:22.667Z,59.58
2022-12-13T05:26:25.891Z,59.65
2022-12-13T05:29:28.207Z,59.74
2022-12-13T05:32:43.426Z,59.79
2022-12-13T05:35:47.998Z,59.93
2022-12-13T05:38:53.418Z,59.96
2022-12-13T05:42:01.039Z,60.15
2022-12-13T05:45:08.394Z,60.15
2022-12-13T05:48:10.609Z,59.87
2022-12-13T05:51:13.216Z,60.07
2022-12-13T05:54:15.547Z,60.22
2022-12-13T05:57:18.098Z,60.32
2022-12-13T06:00:28.616Z,60.29
2022-12-13T06:03:33.367Z,59.94
2022-12-13T06:06:35.366Z,59.72
2022-12-13T06:09:39.826Z,59.79
2022-12-13T06:12:43.371Z,60.03
2022-12-13T06:15:45.853Z,60.01
2022-12-13T06:18:47.984Z,59.97
2022-12-13T06:21:55.404Z,59.77
2022-12-13T06:24:57.392Z,59.70
2022-12-13T06:28:00.863Z,59.57
2022-12-13T06:31:05.380Z,59.52
2022-12-13T06:34:14.281Z,59.63
2022-12-13T06:37:17.481Z,59.55
2022-12-13T06:40:23.254Z,59.52
2022-12-13T06:43:25.921Z,59.70
2022-12-13T06:46:28.204Z,59.53
2022-12-13T06:49:38.637Z,59.69
2022-12-13T06:52:41.389Z,59.24
2022-12-13T06:55:43.650Z,59.84
2022-12-13T06:58:46.060Z,59.61
2022-12-13T07:01:50.629Z,59.54
2022-12-13T07:04:55.516Z,59.24
2022-12-13T07:07:58.275Z,59.28
2022-12-13T07:11:00.855Z,59.43
2022-12-13T07:14:03.163Z,59.64
2022-12-13T07:17:06.841Z,59.66
2022-12-13T07:20:09.399Z,59.62
2022-12-13T07:23:12.533Z,59.74
2022-12-13T07:26:14.750Z,59.78
2022-12-13T07:29:22.198Z,59.65
2022-12-13T07:32:24.905Z,59.74
2022-12-13T07:35:30.950Z,59.79
2022-12-13T07:38:41.293Z,59.48
2022-12-13T07:41:44.685Z,59.24
2022-12-13T07:44:46.855Z,59.14
2022-12-13T07:47:49.735Z,58.80
2022-12-13T07:50:54.449Z,58.71
2022-12-13T07:53:58.390Z,58.72
2022-12-13T07:57:04.367Z,58.78
2022-12-13T08:00:09.140Z,58.80
2022-12-13T08:03:25.744Z,58.56
2022-12-13T08:06:29.029Z,58.62
2022-12-13T08:09:31.063Z,58.59
2022-12-13T08:12:33.739Z,58.70
2022-12-13T08:15:35.876Z,58.86
2022-12-13T08:18:39.738Z,58.97
2022-12-13T08:22:01.708Z,59.36
2022-12-13T08:25:05.281Z,59.37
2022-12-13T08:28:09.619Z,59.41
2022-12-13T08:31:12.448Z,59.20
2022-12-13T08:34:14.915Z,59.19
2022-12-13T08:37:18.099Z,59.14
2022-12-13T08:40:20.463Z,58.95
2022-12-13T08:43:24.822Z,58.97
2022-12-13T08:46:27.759Z,59.16
2022-12-13T08:49:30.487Z,58.83
2022-12-13T08:52:39.590Z,58.88
2022-12-13T08:55:44.137Z,59.03
2022-12-13T08:58:50.598Z,59.01
2022-12-13T09:01:56.623Z,58.93
2022-12-13T09:05:01.231Z,59.44
2022-12-13T09:08:24.495Z,59.55
2022-12-13T09:11:36.614Z,58.83
2022-12-13T09:14:45.665Z,58.57
2022-12-13T09:17:52.415Z,58.66
2022-12-13T09:20:55.410Z,58.96
2022-12-13T09:24:13.449Z,59.15
2022-12-13T09:27:28.872Z,58.80
2022-12-13T09:30:31.875Z,58.59
2022-12-13T09:33:40.820Z,58.43
2022-12-13T09:36:43.897Z,58.30
2022-12-13T09:39:48.029Z,58.07
2022-12-13T09:43:12.255Z,57.78
2022-12-13T09:46:34.454Z,57.64
2022-12-13T09:49:52.067Z,57.63
2022-12-13T09:52:59.837Z,57.60
2022-12-13T09:56:10.353Z,57.52
2022-12-13T09:59:15.341Z,57.78
2022-12-13T10:02:43.303Z,57.83
2022-12-13T10:05:59.169Z,57.58
2022-12-13T10:09:01.638Z,57.59
2022-12-13T10:12:04.802Z,57.45
2022-12-13T10:15:09.170Z,57.25
2022-12-13T10:18:18.739Z,57.31
2022-12-13T10:21:38.009Z,57.50
2022-12-13T10:24:54.516Z,57.57
2022-12-13T10:27:57.658Z,57.67
2022-12-13T10:31:00.881Z,57.55
2022-12-13T10:34:02.909Z,57.50
2022-12-13T10:37:29.043Z,57.48
2022-12-13T10:40:32.682Z,57.44
2022-12-13T10:43:36.226Z,57.34
2022-12-13T10:46:42.661Z,57.20
2022-12-13T10:49:52.764Z,57.13
2022-12-13T10:53:01.662Z,56.95
2022-12-13T10:56:04.669Z,57.26
2022-12-13T10:59:34.498Z,57.24
2022-12-13T11:02:39.857Z,57.13
2022-12-13T11:05:43.794Z,57.09
2022-12-13T11:08:46.154Z,57.07
2022-12-13T11:11:58.229Z,57.13
2022-12-13T11:15:06.477Z,57.23
2022-12-13T11:18:20.919Z,57.36
2022-12-13T11:21:26.759Z,57.54
2022-12-13T11:24:33.107Z,57.62
2022-12-13T11:28:25.660Z,57.68
2022-12-13T11:31:38.503Z,57.80
2022-12-13T11:34:49.197Z,57.77
2022-12-13T11:38:06.379Z,57.91
2022-12-13T11:41:31.108Z,57.88
2022-12-13T11:44:40.775Z,57.90
2022-12-13T11:47:51.721Z,57.89
2022-12-13T11:51:01.484Z,57.85
2022-12-13T11:54:44.881Z,57.69
2022-12-13T11:57:53.090Z,57.55
2022-12-13T12:01:01.624Z,57.54
2022-12-13T12:04:20.296Z,57.46
2022-12-13T12:07:44.583Z,57.49
2022-12-13T12:11:16.679Z,57.33
2022-12-13T12:14:23.029Z,57.82
2022-12-13T12:17:26.748Z,57.91
2022-12-13T12:20:49.941Z,57.83
2022-12-13T12:24:20.927Z,57.85
2022-12-13T12:27:43.817Z,57.79
2022-12-13T12:31:13.819Z,57.68
2022-12-13T12:34:29.665Z,57.59
2022-12-13T12:37:52.050Z,57.11
2022-12-13T12:41:17.337Z,56.83
2022-12-13T12:44:46.546Z,56.96
2022-12-13T12:48:58.573Z,57.07
2022-12-13T12:52:16.827Z,56.84
2022-12-13T12:55:30.475Z,57.20
2022-12-13T12:58:51.060Z,57.38
2022-12-13T13:02:28.479Z,57.44
2022-12-13T13:05:36.191Z,57.51
2022-12-13T13:08:54.981Z,57.55
2022-12-13T13:11:59.119Z,57.52
2022-12-13T13:15:34.295Z,57.48
2022-12-13T13:18:54.666Z,57.47
2022-12-13T13:22:02.616Z,57.55
2022-12-13T13:25:08.688Z,57.61
2022-12-13T13:28:17.098Z,57.60
2022-12-13T13:31:20.058Z,57.67
2022-12-13T13:34:26.556Z,57.65
2022-12-13T13:37:44.252Z,57.54
2022-12-13T13:40:47.011Z,57.59
2022-12-13T13:43:49.182Z,57.59
2022-12-13T13:47:20.926Z,57.68
2022-12-13T13:51:11.197Z,57.65
2022-12-13T13:54:32.624Z,57.67
2022-12-13T13:58:08.388Z,57.68
2022-12-13T14:01:29.993Z,57.73
2022-12-13T14:04:52.438Z,57.73
2022-12-13T14:08:32.965Z,57.78
2022-12-13T14:11:45.232Z,57.88
2022-12-13T14:15:06.354Z,57.85
2022-12-13T14:18:22.927Z,57.73
2022-12-13T14:21:44.048Z,57.73
2022-12-13T14:24:50.939Z,57.80
2022-12-13T14:28:45.273Z,57.85
2022-12-13T14:31:49.796Z,58.04
2022-12-13T14:34:54.504Z,58.04
2022-12-13T14:38:03.016Z,58.40
2022-12-13T14:41:06.260Z,58.47
2022-12-13T14:44:21.639Z,58.27
2022-12-13T14:47:24.926Z,58.15
2022-12-13T14:50:31.876Z,58.11
2022-12-13T14:53:39.584Z,58.20
2022-12-13T14:56:56.401Z,58.19
2022-12-13T15:00:00.717Z,58.29
2022-12-13T15:03:04.995Z,58.26
2022-12-13T15:06:07.718Z,58.28
2022-12-13T15:09:14.715Z,58.25
2022-12-13T15:12:25.188Z,58.20
2022-12-13T15:15:32.581Z,58.30
2022-12-13T15:18:36.408Z,58.25
2022-12-13T15:22:14.024Z,58.30
2022-12-13T15:25:27.633Z,58.38
2022-12-13T15:28:34.067Z,58.17
2022-12-13T15:31:36.810Z,58.21
2022-12-13T15:34:38.899Z,58.26
2022-12-13T15:37:47.068Z,58.29
2022-12-13T15:40:49.857Z,58.40
2022-12-13T15:43:56.437Z,58.52
2022-12-13T15:47:13.002Z,58.47
2022-12-13T15:50:45.390Z,58.72
2022-12-13T15:54:12.343Z,58.65
2022-12-13T15:57:22.020Z,58.62
2022-12-13T16:00:29.565Z,58.65
2022-12-13T16:03:43.857Z,58.66
2022-12-13T16:06:50.679Z,58.66
2022-12-13T16:09:57.353Z,58.79
2022-12-13T16:13:08.088Z,58.80
2022-12-13T16:16:28.192Z,58.81
2022-12-13T16:19:30.469Z,58.84
2022-12-13T16:22:33.293Z,58.86
2022-12-13T16:25:35.767Z,58.97
2022-12-13T16:28:40.704Z,58.99
2022-12-13T16:31:44.505Z,58.99
2022-12-13T16:34:47.561Z,58.96
2022-12-13T16:37:51.536Z,58.87
2022-12-13T16:41:09.548Z,58.91
2022-12-13T16:44:43.120Z,58.81
2022-12-13T16:47:49.463Z,59.03
2022-12-13T16:50:57.589Z,58.91
2022-12-13T16:54:03.615Z,59.02
2022-12-13T16:57:06.221Z,58.81
2022-12-13T17:00:12.617Z,58.76
2022-12-13T17:03:15.407Z,58.63
2022-12-13T17:06:23.145Z,58.81
2022-12-13T17:09:25.495Z,58.69
2022-12-13T17:12:28.381Z,58.86
2022-12-13T17:15:30.717Z,58.60
2022-12-13T17:18:34.756Z,58.61
2022-12-13T17:21:37.940Z,58.69
2022-12-13T17:24:40.584Z,58.75
2022-12-13T17:27:43.461Z,58.54
2022-12-13T17:30:46.011Z,58.68
2022-12-13T17:33:57.107Z,58.51
2022-12-13T17:36:59.699Z,58.50
2022-12-13T17:40:02.290Z,58.51
2022-12-13T17:43:09.466Z,58.31
2022-12-13T17:46:16.357Z,58.82
2022-12-13T17:49:19.417Z,58.85
2022-12-13T17:52:21.879Z,58.89
2022-12-13T17:55:24.493Z,58.77
2022-12-13T17:58:27.987Z,58.69
2022-12-13T18:01:32.600Z,58.72
2022-12-13T18:04:34.715Z,58.63
2022-12-13T18:07:37.547Z,58.76
2022-12-13T18:10:41.072Z,58.71
2022-12-13T18:13:44.947Z,58.83
2022-12-13T18:16:48.476Z,58.85
2022-12-13T18:19:51.289Z,58.84
2022-12-13T18:22:53.413Z,58.81
2022-12-13T18:26:01.089Z,58.80
2022-12-13T18:29:04.588Z,59.31
2022-12-13T18:32:06.997Z,59.48
2022-12-13T18:35:09.208Z,59.30
2022-12-13T18:38:11.734Z,59.32
2022-12-13T18:41:17.840Z,59.25
2022-12-13T18:44:20.272Z,59.22
2022-12-13T18:47:27.077Z,59.01
2022-12-13T18:50:30.421Z,59.27
2022-12-13T18:53:34.236Z,59.30
2022-12-13T18:56:36.769Z,59.18
2022-12-13T18:59:39.087Z,59.29
2022-12-13T19:02:41.908Z,59.22
2022-12-13T19:05:45.527Z,59.27
2022-12-13T19:08:53.366Z,59.25
2022-12-13T19:11:58.641Z,59.28
2022-12-13T19:15:02.014Z,59.22
2022-12-13T19:18:04.396Z,59.13
2022-12-13T19:21:08.934Z,59.10
2022-12-13T19:24:14.411Z,59.14
2022-12-13T19:27:17.089Z,59.15
2022-12-13T19:30:24.239Z,59.15
2022-12-13T19:33:27.945Z,59.14
2022-12-13T19:36:32.776Z,59.16
2022-12-13T19:39:36.802Z,59.23
2022-12-13T19:42:39.234Z,59.24
2022-12-13T19:45:46.223Z,59.28
2022-12-13T19:48:48.943Z,59.31
2022-12-13T19:51:53.639Z,59.24
2022-12-13T19:54:56.057Z,59.46
2022-12-13T19:57:59.916Z,59.70
2022-12-13T20:01:04.818Z,59.98
2022-12-13T20:04:07.697Z,59.58
2022-12-13T20:07:10.837Z,59.80
2022-12-13T20:10:13.518Z,59.75
2022-12-13T20:13:15.704Z,59.95
2022-12-13T20:16:20.733Z,59.78
2022-12-13T20:19:23.466Z,59.57
2022-12-13T20:22:26.290Z,59.28
2022-12-13T20:25:28.302Z,59.23
2022-12-13T20:28:30.955Z,59.31
2022-12-13T20:31:36.087Z,59.25
2022-12-13T20:34:39.183Z,59.41
2022-12-13T20:37:41.728Z,58.91
2022-12-13T20:40:45.657Z,59.09
2022-12-13T20:43:52.161Z,59.45
2022-12-13T20:46:54.579Z,59.54
2022-12-13T20:49:56.779Z,59.66
2022-12-13T20:52:59.499Z,59.67
2022-12-13T20:56:01.864Z,59.53
2022-12-13T20:59:08.466Z,59.50
2022-12-13T21:02:11.982Z,59.34
2022-12-13T21:05:20.476Z,59.26
2022-12-13T21:08:43.480Z,59.15
2022-12-13T21:11:48.276Z,58.92
2022-12-13T21:14:50.511Z,58.75
2022-12-13T21:17:52.878Z,58.62
2022-12-13T21:20:57.353Z,58.62
2022-12-13T21:24:00.790Z,58.65
2022-12-13T21:27:02.991Z,58.54
2022-12-13T21:30:06.001Z,58.57
2022-12-13T21:33:08.127Z,58.42
2022-12-13T21:36:11.976Z,58.32
2022-12-13T21:39:16.754Z,58.28
2022-12-13T21:42:19.240Z,58.36
2022-12-13T21:45:21.687Z,58.45
2022-12-13T21:48:24.428Z,58.45
2022-12-13T21:51:28.658Z,58.41
2022-12-13T21:54:31.686Z,58.32
2022-12-13T21:58:03.145Z,58.26
2022-12-13T22:01:11.834Z,58.04
2022-12-13T22:04:14.001Z,57.85
2022-12-13T22:07:20.531Z,57.80
2022-12-13T22:10:22.979Z,57.56
2022-12-13T22:13:25.618Z,57.61
2022-12-13T22:16:27.902Z,57.58
2022-12-13T22:19:30.555Z,57.57
2022-12-13T22:22:32.796Z,57.63
2022-12-13T22:25:36.398Z,57.58
2022-12-13T22:28:38.889Z,57.70
2022-12-13T22:31:41.582Z,57.77
2022-12-13T22:34:43.810Z,57.68
2022-12-13T22:37:50.826Z,57.47
2022-12-13T22:40:53.325Z,57.35
2022-12-13T22:43:55.753Z,57.24
2022-12-13T22:46:58.153Z,57.23
2022-12-13T22:50:01.644Z,57.11
2022-12-13T22:53:03.569Z,57.06
2022-12-13T22:56:08.872Z,57.00
2022-12-13T22:59:11.175Z,56.92
2022-12-13T23:02:13.985Z,57.19
2022-12-13T23:05:16.933Z,57.03
2022-12-13T23:08:19.437Z,56.92
2022-12-13T23:11:40.605Z,56.82
2022-12-13T23:14:44.868Z,56.70
2022-12-13T23:17:46.893Z,56.67
2022-12-13T23:20:49.565Z,56.49
2022-12-13T23:23:51.605Z,56.45
2022-12-13T23:26:54.257Z,56.12
2022-12-13T23:29:56.589Z,56.25
2022-12-13T23:32:58.905Z,56.34
2022-12-13T23:36:09.370Z,56.23
2022-12-13T23:39:12.953Z,56.23
2022-12-13T23:42:15.213Z,56.10
2022-12-13T23:45:17.715Z,56.31
2022-12-13T23:48:25.222Z,56.02
2022-12-13T23:51:29.936Z,56.17
2022-12-13T23:54:31.849Z,56.12
2022-12-13T23:57:36.090Z,56.20
